sensor_id;sensor_type;location;lat;lon;timestamp;P1;durP1;ratioP1;P2;durP2;ratioP2
2966;SDS011;1493;51.496;7.210;2024-03-08T00:02:17;24.90;;;12.70;;
2966;SDS011;1493;51.496;7.210;2024-03-08T00:04:45;21.53;;;13.10;;
2966;SDS011;1493;51.496;7.210;2024-03-08T00:07:12;22.10;;;13.00;;
2966;SDS011;1493;51.496;7.210;2024-03-08T00:09:39;21.53;;;11.63;;
2966;SDS011;1493;51.496;7.210;2024-03-08T00:12:06;23.40;;;14.00;;
2966;SDS011;1493;51.496;7.210;2024-03-08T00:14:33;27.93;;;13.80;;
2966;SDS011;1493;51.496;7.210;2024-03-08T00:17:02;22.83;;;13.93;;
2966;SDS011;1493;51.496;7.210;2024-03-08T00:19:29;23.60;;;12.03;;
2966;SDS011;1493;51.496;7.210;2024-03-08T00:21:57;23.23;;;13.20;;
2966;SDS011;1493;51.496;7.210;2024-03-08T00:24:24;23.23;;;12.40;;
2966;SDS011;1493;51.496;7.210;2024-03-08T00:26:50;22.80;;;14.50;;
2966;SDS011;1493;51.496;7.210;2024-03-08T00:29:18;23.20;;;12.07;;
2966;SDS011;1493;51.496;7.210;2024-03-08T00:31:45;23.63;;;13.83;;
2966;SDS011;1493;51.496;7.210;2024-03-08T00:34:12;23.00;;;14.10;;
2966;SDS011;1493;51.496;7.210;2024-03-08T00:36:39;19.63;;;12.13;;
2966;SDS011;1493;51.496;7.210;2024-03-08T00:39:07;18.73;;;11.27;;
2966;SDS011;1493;51.496;7.210;2024-03-08T00:41:34;23.97;;;12.70;;
2966;SDS011;1493;51.496;7.210;2024-03-08T00:44:00;24.80;;;14.23;;
2966;SDS011;1493;51.496;7.210;2024-03-08T00:46:29;22.00;;;14.03;;
2966;SDS011;1493;51.496;7.210;2024-03-08T00:48:56;21.13;;;12.10;;
2966;SDS011;1493;51.496;7.210;2024-03-08T00:51:23;24.90;;;13.80;;
2966;SDS011;1493;51.496;7.210;2024-03-08T00:53:50;21.17;;;12.93;;
2966;SDS011;1493;51.496;7.210;2024-03-08T00:56:21;26.53;;;13.40;;
2966;SDS011;1493;51.496;7.210;2024-03-08T00:58:49;24.90;;;13.43;;
2966;SDS011;1493;51.496;7.210;2024-03-08T01:01:18;25.00;;;14.40;;
2966;SDS011;1493;51.496;7.210;2024-03-08T01:03:45;26.60;;;14.50;;
2966;SDS011;1493;51.496;7.210;2024-03-08T01:06:11;30.40;;;16.30;;
2966;SDS011;1493;51.496;7.210;2024-03-08T01:08:38;27.60;;;14.30;;
2966;SDS011;1493;51.496;7.210;2024-03-08T01:11:07;25.20;;;14.20;;
2966;SDS011;1493;51.496;7.210;2024-03-08T01:13:35;24.87;;;15.10;;
2966;SDS011;1493;51.496;7.210;2024-03-08T01:16:04;24.80;;;14.10;;
2966;SDS011;1493;51.496;7.210;2024-03-08T01:18:31;24.00;;;13.67;;
2966;SDS011;1493;51.496;7.210;2024-03-08T01:20:58;24.93;;;13.47;;
2966;SDS011;1493;51.496;7.210;2024-03-08T01:23:25;26.13;;;13.93;;
2966;SDS011;1493;51.496;7.210;2024-03-08T01:25:52;25.90;;;14.00;;
2966;SDS011;1493;51.496;7.210;2024-03-08T01:28:22;25.23;;;13.60;;
2966;SDS011;1493;51.496;7.210;2024-03-08T01:30:50;22.00;;;13.30;;
2966;SDS011;1493;51.496;7.210;2024-03-08T01:33:20;23.40;;;12.93;;
2966;SDS011;1493;51.496;7.210;2024-03-08T01:35:47;23.83;;;13.63;;
2966;SDS011;1493;51.496;7.210;2024-03-08T01:38:14;25.17;;;13.43;;
2966;SDS011;1493;51.496;7.210;2024-03-08T01:40:41;21.50;;;13.23;;
2966;SDS011;1493;51.496;7.210;2024-03-08T01:43:16;25.60;;;15.00;;
2966;SDS011;1493;51.496;7.210;2024-03-08T01:45:44;27.40;;;13.60;;
2966;SDS011;1493;51.496;7.210;2024-03-08T01:48:12;23.23;;;13.67;;
2966;SDS011;1493;51.496;7.210;2024-03-08T01:50:39;23.90;;;12.80;;
2966;SDS011;1493;51.496;7.210;2024-03-08T01:53:07;23.43;;;12.30;;
2966;SDS011;1493;51.496;7.210;2024-03-08T01:55:36;27.00;;;15.70;;
2966;SDS011;1493;51.496;7.210;2024-03-08T01:58:05;21.53;;;13.03;;
2966;SDS011;1493;51.496;7.210;2024-03-08T02:00:33;22.87;;;12.23;;
2966;SDS011;1493;51.496;7.210;2024-03-08T02:03:03;27.00;;;14.73;;
2966;SDS011;1493;51.496;7.210;2024-03-08T02:05:32;29.00;;;14.30;;
2966;SDS011;1493;51.496;7.210;2024-03-08T02:07:58;29.63;;;14.40;;
2966;SDS011;1493;51.496;7.210;2024-03-08T02:10:25;27.00;;;13.50;;
2966;SDS011;1493;51.496;7.210;2024-03-08T02:12:52;25.70;;;14.07;;
2966;SDS011;1493;51.496;7.210;2024-03-08T02:15:19;26.10;;;14.90;;
2966;SDS011;1493;51.496;7.210;2024-03-08T02:17:46;24.33;;;11.80;;
2966;SDS011;1493;51.496;7.210;2024-03-08T02:20:14;22.23;;;13.00;;
2966;SDS011;1493;51.496;7.210;2024-03-08T02:22:42;24.40;;;13.80;;
2966;SDS011;1493;51.496;7.210;2024-03-08T02:25:09;24.03;;;13.50;;
2966;SDS011;1493;51.496;7.210;2024-03-08T02:27:37;24.13;;;13.00;;
2966;SDS011;1493;51.496;7.210;2024-03-08T02:30:04;26.70;;;14.03;;
2966;SDS011;1493;51.496;7.210;2024-03-08T02:32:32;24.13;;;13.57;;
2966;SDS011;1493;51.496;7.210;2024-03-08T02:34:59;26.73;;;14.47;;
2966;SDS011;1493;51.496;7.210;2024-03-08T02:37:25;24.30;;;13.30;;
2966;SDS011;1493;51.496;7.210;2024-03-08T02:39:54;33.53;;;14.23;;
2966;SDS011;1493;51.496;7.210;2024-03-08T02:42:21;26.10;;;14.77;;
2966;SDS011;1493;51.496;7.210;2024-03-08T02:44:48;23.33;;;11.90;;
2966;SDS011;1493;51.496;7.210;2024-03-08T02:47:15;25.00;;;14.80;;
2966;SDS011;1493;51.496;7.210;2024-03-08T02:49:42;22.97;;;13.80;;
2966;SDS011;1493;51.496;7.210;2024-03-08T02:52:08;26.60;;;15.40;;
2966;SDS011;1493;51.496;7.210;2024-03-08T02:54:36;31.53;;;16.23;;
2966;SDS011;1493;51.496;7.210;2024-03-08T02:57:04;26.83;;;14.47;;
2966;SDS011;1493;51.496;7.210;2024-03-08T02:59:32;26.50;;;14.73;;
2966;SDS011;1493;51.496;7.210;2024-03-08T03:02:00;23.33;;;12.93;;
2966;SDS011;1493;51.496;7.210;2024-03-08T03:04:26;24.47;;;14.80;;
2966;SDS011;1493;51.496;7.210;2024-03-08T03:06:53;26.67;;;14.10;;
2966;SDS011;1493;51.496;7.210;2024-03-08T03:09:20;24.20;;;14.00;;
2966;SDS011;1493;51.496;7.210;2024-03-08T03:11:52;25.20;;;13.80;;
2966;SDS011;1493;51.496;7.210;2024-03-08T03:14:20;27.07;;;15.40;;
2966;SDS011;1493;51.496;7.210;2024-03-08T03:16:47;23.50;;;13.43;;
2966;SDS011;1493;51.496;7.210;2024-03-08T03:19:15;27.57;;;14.47;;
2966;SDS011;1493;51.496;7.210;2024-03-08T03:21:41;28.73;;;14.27;;
2966;SDS011;1493;51.496;7.210;2024-03-08T03:24:09;28.53;;;14.50;;
2966;SDS011;1493;51.496;7.210;2024-03-08T03:26:36;32.43;;;15.60;;
2966;SDS011;1493;51.496;7.210;2024-03-08T03:29:04;23.73;;;13.33;;
2966;SDS011;1493;51.496;7.210;2024-03-08T03:31:35;33.03;;;16.30;;
2966;SDS011;1493;51.496;7.210;2024-03-08T03:34:02;25.70;;;13.50;;
2966;SDS011;1493;51.496;7.210;2024-03-08T03:36:29;27.73;;;15.97;;
2966;SDS011;1493;51.496;7.210;2024-03-08T03:38:56;29.60;;;14.60;;
2966;SDS011;1493;51.496;7.210;2024-03-08T03:41:35;30.50;;;16.17;;
2966;SDS011;1493;51.496;7.210;2024-03-08T03:44:03;28.40;;;15.70;;
2966;SDS011;1493;51.496;7.210;2024-03-08T03:46:30;29.00;;;16.17;;
2966;SDS011;1493;51.496;7.210;2024-03-08T03:49:02;24.23;;;13.37;;
2966;SDS011;1493;51.496;7.210;2024-03-08T03:51:29;29.10;;;14.70;;
2966;SDS011;1493;51.496;7.210;2024-03-08T03:53:56;26.40;;;14.90;;
2966;SDS011;1493;51.496;7.210;2024-03-08T03:56:24;27.07;;;14.23;;
2966;SDS011;1493;51.496;7.210;2024-03-08T03:58:51;25.70;;;15.03;;
2966;SDS011;1493;51.496;7.210;2024-03-08T04:01:18;28.43;;;16.70;;
2966;SDS011;1493;51.496;7.210;2024-03-08T04:03:45;29.17;;;15.50;;
2966;SDS011;1493;51.496;7.210;2024-03-08T04:06:13;25.80;;;15.03;;
2966;SDS011;1493;51.496;7.210;2024-03-08T04:08:40;29.03;;;14.17;;
2966;SDS011;1493;51.496;7.210;2024-03-08T04:11:07;27.57;;;17.03;;
2966;SDS011;1493;51.496;7.210;2024-03-08T04:13:34;26.43;;;14.43;;
2966;SDS011;1493;51.496;7.210;2024-03-08T04:16:01;28.27;;;16.50;;
2966;SDS011;1493;51.496;7.210;2024-03-08T04:18:33;28.40;;;15.93;;
2966;SDS011;1493;51.496;7.210;2024-03-08T04:21:00;29.37;;;15.37;;
2966;SDS011;1493;51.496;7.210;2024-03-08T04:23:28;28.60;;;15.77;;
2966;SDS011;1493;51.496;7.210;2024-03-08T04:25:55;35.03;;;17.67;;
2966;SDS011;1493;51.496;7.210;2024-03-08T04:28:22;27.20;;;16.50;;
2966;SDS011;1493;51.496;7.210;2024-03-08T04:30:50;29.43;;;16.43;;
2966;SDS011;1493;51.496;7.210;2024-03-08T04:33:17;26.77;;;14.90;;
2966;SDS011;1493;51.496;7.210;2024-03-08T04:35:44;31.33;;;15.23;;
2966;SDS011;1493;51.496;7.210;2024-03-08T04:38:11;29.23;;;15.40;;
2966;SDS011;1493;51.496;7.210;2024-03-08T04:40:40;28.93;;;16.80;;
2966;SDS011;1493;51.496;7.210;2024-03-08T04:43:06;28.43;;;15.07;;
2966;SDS011;1493;51.496;7.210;2024-03-08T04:45:35;25.97;;;14.83;;
2966;SDS011;1493;51.496;7.210;2024-03-08T04:48:02;28.00;;;15.90;;
2966;SDS011;1493;51.496;7.210;2024-03-08T04:50:29;30.00;;;16.30;;
2966;SDS011;1493;51.496;7.210;2024-03-08T04:52:56;29.50;;;16.00;;
2966;SDS011;1493;51.496;7.210;2024-03-08T04:55:23;27.37;;;15.93;;
2966;SDS011;1493;51.496;7.210;2024-03-08T04:57:52;32.20;;;17.97;;
2966;SDS011;1493;51.496;7.210;2024-03-08T05:00:19;32.53;;;15.80;;
2966;SDS011;1493;51.496;7.210;2024-03-08T05:02:46;33.73;;;16.97;;
2966;SDS011;1493;51.496;7.210;2024-03-08T05:05:13;29.40;;;15.53;;
2966;SDS011;1493;51.496;7.210;2024-03-08T05:07:40;30.43;;;16.10;;
2966;SDS011;1493;51.496;7.210;2024-03-08T05:10:08;29.10;;;17.10;;
2966;SDS011;1493;51.496;7.210;2024-03-08T05:12:35;32.87;;;15.80;;
2966;SDS011;1493;51.496;7.210;2024-03-08T05:15:05;31.10;;;17.37;;
2966;SDS011;1493;51.496;7.210;2024-03-08T05:17:33;31.87;;;17.43;;
2966;SDS011;1493;51.496;7.210;2024-03-08T05:20:01;31.00;;;17.50;;
2966;SDS011;1493;51.496;7.210;2024-03-08T05:22:33;52.93;;;17.03;;
2966;SDS011;1493;51.496;7.210;2024-03-08T05:25:00;31.80;;;16.57;;
2966;SDS011;1493;51.496;7.210;2024-03-08T05:27:27;28.17;;;17.07;;
2966;SDS011;1493;51.496;7.210;2024-03-08T05:29:54;29.97;;;17.50;;
2966;SDS011;1493;51.496;7.210;2024-03-08T05:32:22;33.70;;;16.10;;
2966;SDS011;1493;51.496;7.210;2024-03-08T05:34:50;31.77;;;17.30;;
2966;SDS011;1493;51.496;7.210;2024-03-08T05:37:17;28.60;;;16.10;;
2966;SDS011;1493;51.496;7.210;2024-03-08T05:39:45;31.33;;;17.20;;
2966;SDS011;1493;51.496;7.210;2024-03-08T05:42:12;38.53;;;17.10;;
2966;SDS011;1493;51.496;7.210;2024-03-08T05:44:38;33.00;;;15.60;;
2966;SDS011;1493;51.496;7.210;2024-03-08T05:47:05;31.30;;;16.50;;
2966;SDS011;1493;51.496;7.210;2024-03-08T05:49:36;35.80;;;16.73;;
2966;SDS011;1493;51.496;7.210;2024-03-08T05:52:03;30.10;;;16.67;;
2966;SDS011;1493;51.496;7.210;2024-03-08T05:54:30;27.57;;;15.33;;
2966;SDS011;1493;51.496;7.210;2024-03-08T05:56:58;28.80;;;16.67;;
2966;SDS011;1493;51.496;7.210;2024-03-08T05:59:25;31.63;;;16.70;;
2966;SDS011;1493;51.496;7.210;2024-03-08T06:01:52;29.53;;;16.60;;
2966;SDS011;1493;51.496;7.210;2024-03-08T06:04:19;34.50;;;18.93;;
2966;SDS011;1493;51.496;7.210;2024-03-08T06:06:47;35.30;;;19.10;;
2966;SDS011;1493;51.496;7.210;2024-03-08T06:09:16;34.83;;;16.03;;
2966;SDS011;1493;51.496;7.210;2024-03-08T06:11:48;29.53;;;16.33;;
2966;SDS011;1493;51.496;7.210;2024-03-08T06:14:15;33.40;;;18.37;;
2966;SDS011;1493;51.496;7.210;2024-03-08T06:16:43;39.57;;;18.67;;
2966;SDS011;1493;51.496;7.210;2024-03-08T06:19:10;33.07;;;18.80;;
2966;SDS011;1493;51.496;7.210;2024-03-08T06:21:37;34.77;;;20.03;;
2966;SDS011;1493;51.496;7.210;2024-03-08T06:24:05;34.60;;;19.23;;
2966;SDS011;1493;51.496;7.210;2024-03-08T06:26:32;31.70;;;16.93;;
2966;SDS011;1493;51.496;7.210;2024-03-08T06:28:59;30.90;;;16.97;;
2966;SDS011;1493;51.496;7.210;2024-03-08T06:31:26;37.03;;;18.53;;
2966;SDS011;1493;51.496;7.210;2024-03-08T06:33:52;28.03;;;16.90;;
2966;SDS011;1493;51.496;7.210;2024-03-08T06:36:20;37.77;;;20.13;;
2966;SDS011;1493;51.496;7.210;2024-03-08T06:38:47;30.40;;;17.80;;
2966;SDS011;1493;51.496;7.210;2024-03-08T06:41:16;33.43;;;17.00;;
2966;SDS011;1493;51.496;7.210;2024-03-08T06:43:43;36.20;;;18.40;;
2966;SDS011;1493;51.496;7.210;2024-03-08T06:46:10;34.30;;;16.60;;
2966;SDS011;1493;51.496;7.210;2024-03-08T06:48:37;33.00;;;18.90;;
2966;SDS011;1493;51.496;7.210;2024-03-08T06:51:05;37.67;;;18.60;;
2966;SDS011;1493;51.496;7.210;2024-03-08T06:53:32;36.20;;;17.70;;
2966;SDS011;1493;51.496;7.210;2024-03-08T06:56:00;31.83;;;16.80;;
2966;SDS011;1493;51.496;7.210;2024-03-08T06:58:28;33.30;;;18.00;;
2966;SDS011;1493;51.496;7.210;2024-03-08T07:00:55;28.77;;;16.40;;
2966;SDS011;1493;51.496;7.210;2024-03-08T07:03:23;32.93;;;18.27;;
2966;SDS011;1493;51.496;7.210;2024-03-08T07:05:51;30.50;;;16.90;;
2966;SDS011;1493;51.496;7.210;2024-03-08T07:08:19;30.90;;;16.97;;
2966;SDS011;1493;51.496;7.210;2024-03-08T07:10:47;32.23;;;17.60;;
2966;SDS011;1493;51.496;7.210;2024-03-08T07:13:14;30.47;;;16.83;;
2966;SDS011;1493;51.496;7.210;2024-03-08T07:15:43;43.10;;;18.80;;
2966;SDS011;1493;51.496;7.210;2024-03-08T07:18:10;33.93;;;19.07;;
2966;SDS011;1493;51.496;7.210;2024-03-08T07:20:39;28.87;;;16.10;;
2966;SDS011;1493;51.496;7.210;2024-03-08T07:23:07;29.13;;;17.20;;
2966;SDS011;1493;51.496;7.210;2024-03-08T07:25:35;29.90;;;17.70;;
2966;SDS011;1493;51.496;7.210;2024-03-08T07:28:04;31.90;;;16.57;;
2966;SDS011;1493;51.496;7.210;2024-03-08T07:30:31;30.00;;;17.57;;
2966;SDS011;1493;51.496;7.210;2024-03-08T07:33:17;35.00;;;18.50;;
2966;SDS011;1493;51.496;7.210;2024-03-08T07:35:44;28.07;;;16.03;;
2966;SDS011;1493;51.496;7.210;2024-03-08T07:38:12;29.37;;;16.37;;
2966;SDS011;1493;51.496;7.210;2024-03-08T07:40:39;36.70;;;19.10;;
2966;SDS011;1493;51.496;7.210;2024-03-08T07:43:09;29.33;;;16.80;;
2966;SDS011;1493;51.496;7.210;2024-03-08T07:45:36;31.30;;;16.37;;
2966;SDS011;1493;51.496;7.210;2024-03-08T07:48:03;29.50;;;14.17;;
2966;SDS011;1493;51.496;7.210;2024-03-08T07:50:36;28.50;;;15.30;;
2966;SDS011;1493;51.496;7.210;2024-03-08T07:53:03;31.27;;;16.13;;
2966;SDS011;1493;51.496;7.210;2024-03-08T07:55:31;27.40;;;14.47;;
2966;SDS011;1493;51.496;7.210;2024-03-08T07:57:58;35.00;;;16.80;;
2966;SDS011;1493;51.496;7.210;2024-03-08T08:00:25;28.20;;;16.80;;
2966;SDS011;1493;51.496;7.210;2024-03-08T08:02:52;29.00;;;16.10;;
2966;SDS011;1493;51.496;7.210;2024-03-08T08:05:19;32.83;;;17.50;;
2966;SDS011;1493;51.496;7.210;2024-03-08T08:07:47;29.60;;;15.00;;
2966;SDS011;1493;51.496;7.210;2024-03-08T08:10:15;31.17;;;16.20;;
2966;SDS011;1493;51.496;7.210;2024-03-08T08:12:43;26.20;;;15.90;;
2966;SDS011;1493;51.496;7.210;2024-03-08T08:15:11;28.03;;;15.33;;
2966;SDS011;1493;51.496;7.210;2024-03-08T08:17:40;29.90;;;16.27;;
2966;SDS011;1493;51.496;7.210;2024-03-08T08:20:10;29.97;;;16.27;;
2966;SDS011;1493;51.496;7.210;2024-03-08T08:22:38;27.63;;;16.50;;
2966;SDS011;1493;51.496;7.210;2024-03-08T08:25:07;30.10;;;14.90;;
2966;SDS011;1493;51.496;7.210;2024-03-08T08:27:36;29.13;;;14.97;;
2966;SDS011;1493;51.496;7.210;2024-03-08T08:30:05;28.57;;;14.43;;
2966;SDS011;1493;51.496;7.210;2024-03-08T08:32:33;28.60;;;15.03;;
2966;SDS011;1493;51.496;7.210;2024-03-08T08:35:00;32.50;;;16.37;;
2966;SDS011;1493;51.496;7.210;2024-03-08T08:37:27;28.30;;;15.87;;
2966;SDS011;1493;51.496;7.210;2024-03-08T08:39:55;27.13;;;14.67;;
2966;SDS011;1493;51.496;7.210;2024-03-08T08:42:25;30.70;;;16.10;;
2966;SDS011;1493;51.496;7.210;2024-03-08T08:44:53;29.63;;;15.40;;
2966;SDS011;1493;51.496;7.210;2024-03-08T08:47:22;25.30;;;14.83;;
2966;SDS011;1493;51.496;7.210;2024-03-08T08:49:49;31.77;;;15.70;;
2966;SDS011;1493;51.496;7.210;2024-03-08T08:52:16;26.10;;;15.20;;
2966;SDS011;1493;51.496;7.210;2024-03-08T08:54:43;27.13;;;16.47;;
2966;SDS011;1493;51.496;7.210;2024-03-08T08:57:10;28.53;;;14.93;;
2966;SDS011;1493;51.496;7.210;2024-03-08T08:59:40;31.60;;;16.23;;
2966;SDS011;1493;51.496;7.210;2024-03-08T09:02:07;28.10;;;16.67;;
2966;SDS011;1493;51.496;7.210;2024-03-08T09:04:34;30.00;;;16.33;;
2966;SDS011;1493;51.496;7.210;2024-03-08T09:07:01;24.67;;;14.67;;
2966;SDS011;1493;51.496;7.210;2024-03-08T09:09:31;24.73;;;15.50;;
2966;SDS011;1493;51.496;7.210;2024-03-08T09:11:58;26.03;;;14.80;;
2966;SDS011;1493;51.496;7.210;2024-03-08T09:14:25;25.10;;;14.00;;
2966;SDS011;1493;51.496;7.210;2024-03-08T09:16:53;26.97;;;15.00;;
2966;SDS011;1493;51.496;7.210;2024-03-08T09:19:20;27.20;;;15.67;;
2966;SDS011;1493;51.496;7.210;2024-03-08T09:21:48;27.27;;;15.43;;
2966;SDS011;1493;51.496;7.210;2024-03-08T09:24:16;28.17;;;15.30;;
2966;SDS011;1493;51.496;7.210;2024-03-08T09:26:43;26.90;;;14.60;;
2966;SDS011;1493;51.496;7.210;2024-03-08T09:29:10;28.97;;;13.63;;
2966;SDS011;1493;51.496;7.210;2024-03-08T09:31:36;26.40;;;15.10;;
2966;SDS011;1493;51.496;7.210;2024-03-08T09:34:06;26.07;;;14.67;;
2966;SDS011;1493;51.496;7.210;2024-03-08T09:36:33;25.43;;;13.93;;
2966;SDS011;1493;51.496;7.210;2024-03-08T09:39:00;23.13;;;14.23;;
2966;SDS011;1493;51.496;7.210;2024-03-08T09:41:27;27.70;;;15.50;;
2966;SDS011;1493;51.496;7.210;2024-03-08T09:43:56;28.70;;;15.47;;
2966;SDS011;1493;51.496;7.210;2024-03-08T09:46:24;32.17;;;15.23;;
2966;SDS011;1493;51.496;7.210;2024-03-08T09:48:52;28.17;;;16.73;;
2966;SDS011;1493;51.496;7.210;2024-03-08T09:51:21;25.47;;;14.20;;
2966;SDS011;1493;51.496;7.210;2024-03-08T09:53:51;24.00;;;14.20;;
2966;SDS011;1493;51.496;7.210;2024-03-08T09:56:18;27.70;;;15.30;;
2966;SDS011;1493;51.496;7.210;2024-03-08T09:58:45;25.77;;;16.27;;
2966;SDS011;1493;51.496;7.210;2024-03-08T10:01:39;25.57;;;14.60;;
2966;SDS011;1493;51.496;7.210;2024-03-08T10:04:06;27.23;;;14.80;;
2966;SDS011;1493;51.496;7.210;2024-03-08T10:06:36;24.33;;;14.47;;
2966;SDS011;1493;51.496;7.210;2024-03-08T10:09:03;25.93;;;14.77;;
2966;SDS011;1493;51.496;7.210;2024-03-08T10:11:32;26.57;;;14.67;;
2966;SDS011;1493;51.496;7.210;2024-03-08T10:14:00;23.20;;;14.93;;
2966;SDS011;1493;51.496;7.210;2024-03-08T10:16:27;23.57;;;13.33;;
2966;SDS011;1493;51.496;7.210;2024-03-08T10:18:55;22.50;;;14.67;;
2966;SDS011;1493;51.496;7.210;2024-03-08T10:21:22;26.57;;;16.90;;
2966;SDS011;1493;51.496;7.210;2024-03-08T10:23:51;24.50;;;16.03;;
2966;SDS011;1493;51.496;7.210;2024-03-08T10:26:19;25.17;;;16.60;;
2966;SDS011;1493;51.496;7.210;2024-03-08T10:28:47;25.23;;;16.57;;
2966;SDS011;1493;51.496;7.210;2024-03-08T10:31:15;25.43;;;17.70;;
2966;SDS011;1493;51.496;7.210;2024-03-08T10:33:42;24.20;;;16.47;;
2966;SDS011;1493;51.496;7.210;2024-03-08T10:36:09;26.60;;;17.30;;
2966;SDS011;1493;51.496;7.210;2024-03-08T10:38:38;26.53;;;16.53;;
2966;SDS011;1493;51.496;7.210;2024-03-08T10:41:08;26.77;;;17.77;;
2966;SDS011;1493;51.496;7.210;2024-03-08T10:43:39;25.23;;;16.83;;
2966;SDS011;1493;51.496;7.210;2024-03-08T10:46:39;19.77;;;14.40;;
2966;SDS011;1493;51.496;7.210;2024-03-08T10:49:16;23.57;;;15.30;;
2966;SDS011;1493;51.496;7.210;2024-03-08T10:51:44;24.10;;;16.97;;
2966;SDS011;1493;51.496;7.210;2024-03-08T10:54:12;25.90;;;15.90;;
2966;SDS011;1493;51.496;7.210;2024-03-08T10:56:43;23.10;;;16.90;;
2966;SDS011;1493;51.496;7.210;2024-03-08T10:59:11;24.40;;;16.97;;
2966;SDS011;1493;51.496;7.210;2024-03-08T11:01:39;27.10;;;18.60;;
2966;SDS011;1493;51.496;7.210;2024-03-08T11:04:06;23.90;;;16.30;;
2966;SDS011;1493;51.496;7.210;2024-03-08T11:06:41;23.73;;;16.40;;
2966;SDS011;1493;51.496;7.210;2024-03-08T11:09:11;21.77;;;15.63;;
2966;SDS011;1493;51.496;7.210;2024-03-08T11:14:55;25.43;;;16.50;;
2966;SDS011;1493;51.496;7.210;2024-03-08T11:17:26;25.73;;;17.00;;
2966;SDS011;1493;51.496;7.210;2024-03-08T11:20:08;23.13;;;16.33;;
2966;SDS011;1493;51.496;7.210;2024-03-08T11:22:41;22.90;;;15.40;;
2966;SDS011;1493;51.496;7.210;2024-03-08T11:28:12;23.17;;;15.90;;
2966;SDS011;1493;51.496;7.210;2024-03-08T11:30:42;22.70;;;16.00;;
2966;SDS011;1493;51.496;7.210;2024-03-08T11:33:11;23.40;;;15.80;;
2966;SDS011;1493;51.496;7.210;2024-03-08T11:35:38;23.60;;;16.43;;
2966;SDS011;1493;51.496;7.210;2024-03-08T11:38:05;22.27;;;16.37;;
2966;SDS011;1493;51.496;7.210;2024-03-08T11:40:34;22.30;;;16.83;;
2966;SDS011;1493;51.496;7.210;2024-03-08T11:43:02;22.67;;;15.67;;
2966;SDS011;1493;51.496;7.210;2024-03-08T11:45:34;23.27;;;15.93;;
2966;SDS011;1493;51.496;7.210;2024-03-08T11:48:02;21.50;;;16.17;;
2966;SDS011;1493;51.496;7.210;2024-03-08T11:50:29;22.90;;;15.90;;
2966;SDS011;1493;51.496;7.210;2024-03-08T11:53:00;22.23;;;15.37;;
2966;SDS011;1493;51.496;7.210;2024-03-08T11:55:28;21.60;;;15.60;;
2966;SDS011;1493;51.496;7.210;2024-03-08T11:58:04;24.73;;;14.63;;
2966;SDS011;1493;51.496;7.210;2024-03-08T12:00:37;19.57;;;14.30;;
2966;SDS011;1493;51.496;7.210;2024-03-08T12:03:05;22.87;;;16.03;;
2966;SDS011;1493;51.496;7.210;2024-03-08T12:05:32;21.83;;;16.10;;
2966;SDS011;1493;51.496;7.210;2024-03-08T12:08:00;21.10;;;13.43;;
2966;SDS011;1493;51.496;7.210;2024-03-08T12:10:28;21.50;;;15.40;;
2966;SDS011;1493;51.496;7.210;2024-03-08T12:12:56;19.33;;;15.60;;
2966;SDS011;1493;51.496;7.210;2024-03-08T12:15:25;19.70;;;14.13;;
2966;SDS011;1493;51.496;7.210;2024-03-08T12:17:54;19.63;;;14.50;;
2966;SDS011;1493;51.496;7.210;2024-03-08T12:20:22;20.20;;;15.60;;
2966;SDS011;1493;51.496;7.210;2024-03-08T12:22:50;19.50;;;13.33;;
2966;SDS011;1493;51.496;7.210;2024-03-08T12:25:18;20.00;;;15.70;;
2966;SDS011;1493;51.496;7.210;2024-03-08T12:27:45;22.27;;;14.70;;
2966;SDS011;1493;51.496;7.210;2024-03-08T12:30:19;20.60;;;12.93;;
2966;SDS011;1493;51.496;7.210;2024-03-08T12:32:52;19.73;;;15.77;;
2966;SDS011;1493;51.496;7.210;2024-03-08T12:35:23;20.90;;;14.33;;
2966;SDS011;1493;51.496;7.210;2024-03-08T12:37:52;15.70;;;11.13;;
2966;SDS011;1493;51.496;7.210;2024-03-08T12:40:27;15.50;;;10.47;;
2966;SDS011;1493;51.496;7.210;2024-03-08T12:43:05;13.60;;;9.57;;
2966;SDS011;1493;51.496;7.210;2024-03-08T12:45:32;13.93;;;8.80;;
2966;SDS011;1493;51.496;7.210;2024-03-08T12:48:00;13.33;;;8.73;;
2966;SDS011;1493;51.496;7.210;2024-03-08T12:50:28;12.23;;;8.53;;
2966;SDS011;1493;51.496;7.210;2024-03-08T12:52:56;12.40;;;8.70;;
2966;SDS011;1493;51.496;7.210;2024-03-08T12:55:22;13.17;;;8.47;;
2966;SDS011;1493;51.496;7.210;2024-03-08T12:57:49;12.90;;;7.93;;
2966;SDS011;1493;51.496;7.210;2024-03-08T13:00:18;13.00;;;8.60;;
2966;SDS011;1493;51.496;7.210;2024-03-08T13:02:45;14.20;;;8.80;;
2966;SDS011;1493;51.496;7.210;2024-03-08T13:05:13;11.60;;;7.40;;
2966;SDS011;1493;51.496;7.210;2024-03-08T13:07:40;12.43;;;8.13;;
2966;SDS011;1493;51.496;7.210;2024-03-08T13:10:12;13.07;;;8.87;;
2966;SDS011;1493;51.496;7.210;2024-03-08T13:12:40;13.03;;;8.23;;
2966;SDS011;1493;51.496;7.210;2024-03-08T13:15:07;12.10;;;7.97;;
2966;SDS011;1493;51.496;7.210;2024-03-08T13:17:36;13.27;;;7.63;;
2966;SDS011;1493;51.496;7.210;2024-03-08T13:20:05;11.17;;;7.10;;
2966;SDS011;1493;51.496;7.210;2024-03-08T13:22:36;13.13;;;8.50;;
2966;SDS011;1493;51.496;7.210;2024-03-08T13:25:03;12.67;;;7.57;;
2966;SDS011;1493;51.496;7.210;2024-03-08T13:27:30;12.03;;;7.53;;
2966;SDS011;1493;51.496;7.210;2024-03-08T13:29:57;12.00;;;7.33;;
2966;SDS011;1493;51.496;7.210;2024-03-08T13:32:24;14.17;;;8.13;;
2966;SDS011;1493;51.496;7.210;2024-03-08T13:34:51;13.87;;;7.93;;
2966;SDS011;1493;51.496;7.210;2024-03-08T13:37:19;12.87;;;8.40;;
2966;SDS011;1493;51.496;7.210;2024-03-08T13:39:47;14.47;;;8.87;;
2966;SDS011;1493;51.496;7.210;2024-03-08T13:42:14;19.00;;;9.37;;
2966;SDS011;1493;51.496;7.210;2024-03-08T13:44:44;11.57;;;7.93;;
2966;SDS011;1493;51.496;7.210;2024-03-08T13:47:12;12.03;;;7.73;;
2966;SDS011;1493;51.496;7.210;2024-03-08T13:49:39;13.60;;;7.67;;
2966;SDS011;1493;51.496;7.210;2024-03-08T13:52:06;11.20;;;7.53;;
2966;SDS011;1493;51.496;7.210;2024-03-08T13:54:34;14.37;;;9.50;;
2966;SDS011;1493;51.496;7.210;2024-03-08T13:57:02;18.10;;;9.87;;
2966;SDS011;1493;51.496;7.210;2024-03-08T13:59:29;15.30;;;9.60;;
2966;SDS011;1493;51.496;7.210;2024-03-08T14:01:58;15.53;;;10.10;;
2966;SDS011;1493;51.496;7.210;2024-03-08T14:04:26;13.30;;;9.47;;
2966;SDS011;1493;51.496;7.210;2024-03-08T14:06:53;14.83;;;9.80;;
2966;SDS011;1493;51.496;7.210;2024-03-08T14:09:22;13.03;;;8.50;;
2966;SDS011;1493;51.496;7.210;2024-03-08T14:11:50;13.67;;;9.27;;
2966;SDS011;1493;51.496;7.210;2024-03-08T14:14:20;12.83;;;8.90;;
2966;SDS011;1493;51.496;7.210;2024-03-08T14:16:48;13.73;;;8.23;;
2966;SDS011;1493;51.496;7.210;2024-03-08T14:19:17;14.67;;;9.53;;
2966;SDS011;1493;51.496;7.210;2024-03-08T14:21:44;13.87;;;8.47;;
2966;SDS011;1493;51.496;7.210;2024-03-08T14:24:12;17.97;;;8.70;;
2966;SDS011;1493;51.496;7.210;2024-03-08T14:26:40;15.63;;;9.70;;
2966;SDS011;1493;51.496;7.210;2024-03-08T14:29:07;18.30;;;9.60;;
2966;SDS011;1493;51.496;7.210;2024-03-08T14:31:38;14.10;;;9.00;;
2966;SDS011;1493;51.496;7.210;2024-03-08T14:34:06;14.50;;;8.40;;
2966;SDS011;1493;51.496;7.210;2024-03-08T14:36:34;14.40;;;9.33;;
2966;SDS011;1493;51.496;7.210;2024-03-08T14:39:01;16.60;;;9.80;;
2966;SDS011;1493;51.496;7.210;2024-03-08T14:41:27;16.30;;;10.73;;
2966;SDS011;1493;51.496;7.210;2024-03-08T14:43:55;14.70;;;9.37;;
2966;SDS011;1493;51.496;7.210;2024-03-08T14:46:22;16.73;;;9.80;;
2966;SDS011;1493;51.496;7.210;2024-03-08T14:48:50;16.40;;;9.53;;
2966;SDS011;1493;51.496;7.210;2024-03-08T14:51:17;15.83;;;9.37;;
2966;SDS011;1493;51.496;7.210;2024-03-08T14:53:51;20.00;;;10.90;;
2966;SDS011;1493;51.496;7.210;2024-03-08T14:56:19;18.33;;;9.37;;
2966;SDS011;1493;51.496;7.210;2024-03-08T14:58:48;18.67;;;9.47;;
2966;SDS011;1493;51.496;7.210;2024-03-08T15:01:16;19.00;;;10.07;;
2966;SDS011;1493;51.496;7.210;2024-03-08T15:03:47;17.43;;;9.80;;